createdAt,value
2023-02-02T00:00:45.569Z,30.30
2023-02-02T00:05:51.209Z,30.40
2023-02-02T00:10:54.049Z,30.70
2023-02-02T00:15:56.912Z,30.00
2023-02-02T00:21:01.117Z,29.90
2023-02-02T00:26:03.925Z,29.80
2023-02-02T00:31:06.885Z,29.90
2023-02-02T00:36:11.212Z,29.90
2023-02-02T00:41:14.082Z,30.00
2023-02-02T00:46:19.822Z,30.00
2023-02-02T00:51:24.016Z,30.00
2023-02-02T00:56:26.966Z,30.20
2023-02-02T01:01:30.206Z,30.00
2023-02-02T01:06:34.537Z,30.00
2023-02-02T01:11:37.627Z,30.10
2023-02-02T01:16:40.603Z,30.10
2023-02-02T01:21:44.966Z,30.10
2023-02-02T01:26:47.929Z,30.10
2023-02-02T01:31:51.156Z,30.10
2023-02-02T01:36:55.412Z,30.10
2023-02-02T01:41:58.263Z,30.10
2023-02-02T01:47:01.080Z,30.10
2023-02-02T01:52:06.361Z,30.00
2023-02-02T01:57:13.524Z,30.00
2023-02-02T02:02:16.898Z,30.00
2023-02-02T02:07:21.091Z,30.10
2023-02-02T02:12:23.889Z,30.40
2023-02-02T02:17:40.370Z,30.20
2023-02-02T02:23:18.655Z,30.20
2023-02-02T02:29:01.216Z,30.80
2023-02-02T02:34:10.995Z,30.70
2023-02-02T02:39:20.602Z,30.60
2023-02-02T02:44:23.688Z,30.70
2023-02-02T02:49:28.057Z,30.80
2023-02-02T02:54:33.284Z,31.40
2023-02-02T02:59:44.532Z,30.60
2023-02-02T03:05:02.277Z,30.50
2023-02-02T03:10:08.710Z,30.50
2023-02-02T03:15:12.467Z,30.70
2023-02-02T03:20:17.537Z,30.50
2023-02-02T03:25:20.470Z,30.70
2023-02-02T03:30:23.681Z,30.70
2023-02-02T03:35:27.960Z,30.80
2023-02-02T03:40:31.233Z,30.70
2023-02-02T03:45:35.410Z,30.60
2023-02-02T03:50:39.815Z,30.70
2023-02-02T03:55:42.687Z,30.60
2023-02-02T04:00:45.549Z,30.60
2023-02-02T04:05:51.985Z,30.70
2023-02-02T04:10:54.811Z,30.90
2023-02-02T04:15:59.169Z,31.30
2023-02-02T04:21:03.589Z,30.80
2023-02-02T04:26:06.821Z,30.90
2023-02-02T04:31:09.841Z,31.00
2023-02-02T04:36:14.126Z,31.10
2023-02-02T04:41:18.630Z,30.90
2023-02-02T04:46:21.445Z,30.90
2023-02-02T04:51:25.666Z,30.80
2023-02-02T04:56:29.073Z,30.90
2023-02-02T05:01:32.006Z,30.90
2023-02-02T05:06:36.224Z,31.00
2023-02-02T05:11:39.985Z,31.10
2023-02-02T05:16:42.852Z,31.10
2023-02-02T05:21:50.988Z,31.20
2023-02-02T05:26:58.422Z,31.30
2023-02-02T05:32:01.415Z,31.00
2023-02-02T05:37:05.739Z,31.00
2023-02-02T05:42:08.780Z,31.00
2023-02-02T05:47:11.598Z,31.10
2023-02-02T05:52:19.059Z,31.00
2023-02-02T05:57:21.909Z,31.00
2023-02-02T06:02:24.771Z,31.00
2023-02-02T06:07:28.937Z,31.00
2023-02-02T06:12:31.851Z,31.20
2023-02-02T06:17:34.672Z,31.20
2023-02-02T06:22:38.909Z,31.30
2023-02-02T06:27:41.851Z,31.40
2023-02-02T06:32:44.748Z,31.30
2023-02-02T06:37:49.152Z,31.10
2023-02-02T06:42:57.049Z,31.10
2023-02-02T06:48:03.528Z,31.30
2023-02-02T06:53:07.976Z,31.40
2023-02-02T06:58:10.831Z,31.40
2023-02-02T07:03:13.704Z,31.40
2023-02-02T07:08:18.057Z,31.50
2023-02-02T07:13:20.862Z,31.50
2023-02-02T07:18:24.119Z,31.40
2023-02-02T07:23:28.703Z,31.30
2023-02-02T07:28:32.265Z,31.30
2023-02-02T07:33:38.664Z,31.20
2023-02-02T07:38:42.964Z,31.40
2023-02-02T07:43:48.068Z,31.60
2023-02-02T07:48:54.164Z,31.30
2023-02-02T07:53:59.407Z,31.20
2023-02-02T07:59:02.538Z,31.20
2023-02-02T08:04:05.806Z,31.20
2023-02-02T08:09:10.995Z,31.20
2023-02-02T08:14:14.907Z,31.30
2023-02-02T08:19:17.713Z,31.50
2023-02-02T08:24:22.016Z,31.30
2023-02-02T08:29:25.141Z,31.20
2023-02-02T08:34:28.017Z,31.10
2023-02-02T08:39:32.345Z,31.10
2023-02-02T08:45:59.937Z,31.20
2023-02-02T08:49:57.935Z,31.10
2023-02-02T08:55:02.083Z,31.70
2023-02-02T09:00:05.229Z,31.10
2023-02-02T09:05:08.697Z,31.10
2023-02-02T09:10:13.103Z,31.10
2023-02-02T09:15:16.042Z,31.10
2023-02-02T09:20:20.598Z,31.20
2023-02-02T09:25:27.513Z,31.20
2023-02-02T09:30:30.574Z,31.20
2023-02-02T09:35:33.455Z,31.20
2023-02-02T09:40:37.664Z,31.30
2023-02-02T09:45:48.768Z,31.90
2023-02-02T09:50:55.343Z,31.30
2023-02-02T09:56:04.957Z,31.40
2023-02-02T10:01:13.685Z,31.40
2023-02-02T10:06:29.204Z,31.30
2023-02-02T10:11:38.522Z,31.30
2023-02-02T10:16:42.239Z,31.30
2023-02-02T10:21:52.842Z,32.00
2023-02-02T10:26:59.195Z,31.50
2023-02-02T10:32:14.458Z,31.50
2023-02-02T10:37:28.301Z,31.50
2023-02-02T10:43:12.329Z,31.60
2023-02-02T10:48:17.692Z,31.50
2023-02-02T10:53:21.440Z,31.50
2023-02-02T10:58:31.173Z,31.50
2023-02-02T11:03:34.584Z,31.60
2023-02-02T11:08:40.836Z,31.60
2023-02-02T11:13:48.932Z,31.60
2023-02-02T11:18:51.859Z,31.60
2023-02-02T11:23:57.004Z,31.50
2023-02-02T11:29:01.302Z,31.60
2023-02-02T11:34:19.536Z,31.60
2023-02-02T11:39:26.206Z,31.70
2023-02-02T11:44:32.392Z,31.70
2023-02-02T11:49:43.057Z,31.70
2023-02-02T11:54:49.286Z,31.70
2023-02-02T12:00:16.092Z,31.70
2023-02-02T12:05:46.525Z,31.70
2023-02-02T12:10:56.217Z,31.70
2023-02-02T12:16:14.785Z,31.70
2023-02-02T12:21:22.461Z,31.80
2023-02-02T12:26:31.319Z,31.80
2023-02-02T12:31:44.256Z,31.70
2023-02-02T12:36:54.553Z,31.70
2023-02-02T12:42:13.731Z,31.70
2023-02-02T12:47:23.840Z,31.60
2023-02-02T12:52:42.909Z,31.60
2023-02-02T12:57:54.787Z,31.70
2023-02-02T13:03:09.192Z,31.70
2023-02-02T13:08:16.172Z,31.60
2023-02-02T13:13:21.899Z,31.70
2023-02-02T13:18:31.192Z,31.60
2023-02-02T13:23:37.402Z,31.70
2023-02-02T13:28:45.985Z,31.70
2023-02-02T13:33:57.169Z,31.70
2023-02-02T13:39:02.968Z,31.70
2023-02-02T13:44:13.720Z,31.70
2023-02-02T13:49:21.249Z,31.70
2023-02-02T13:55:14.939Z,31.70
2023-02-02T14:00:20.644Z,31.70
2023-02-02T14:05:28.465Z,31.70
2023-02-02T14:10:36.102Z,31.70
2023-02-02T14:15:40.714Z,31.70
2023-02-02T14:20:47.256Z,31.70
2023-02-02T14:26:04.833Z,31.70
2023-02-02T14:31:42.304Z,31.70
2023-02-02T14:37:00.612Z,31.80
2023-02-02T14:42:36.084Z,31.80
2023-02-02T14:47:44.160Z,31.70
2023-02-02T14:53:00.771Z,31.70
2023-02-02T14:58:06.111Z,31.60
2023-02-02T15:03:48.791Z,31.60
2023-02-02T15:09:26.477Z,31.60
2023-02-02T15:14:36.877Z,31.70
2023-02-02T15:19:43.155Z,31.70
2023-02-02T15:24:46.920Z,31.70
2023-02-02T15:29:56.028Z,31.70
2023-02-02T15:35:01.607Z,31.70
2023-02-02T15:40:09.378Z,31.60
2023-02-02T15:45:33.308Z,31.60
2023-02-02T15:50:37.052Z,31.60
2023-02-02T15:55:39.927Z,31.50
2023-02-02T16:00:44.162Z,31.50
2023-02-02T16:05:50.014Z,31.50
2023-02-02T16:11:03.745Z,31.60
2023-02-02T16:16:22.966Z,31.60
2023-02-02T16:21:27.531Z,31.60
2023-02-02T16:26:32.277Z,31.50
2023-02-02T16:31:37.821Z,31.50
2023-02-02T16:36:40.802Z,31.50
2023-02-02T16:41:47.200Z,31.40
2023-02-02T16:46:51.493Z,31.40
2023-02-02T16:52:11.025Z,31.40
2023-02-02T16:57:20.433Z,31.40
2023-02-02T17:02:31.566Z,31.50
2023-02-02T17:07:36.702Z,31.30
2023-02-02T17:12:39.716Z,31.10
2023-02-02T17:17:44.248Z,31.40
2023-02-02T17:22:49.105Z,30.50
2023-02-02T17:27:52.105Z,30.40
2023-02-02T17:32:56.367Z,30.40
2023-02-02T17:37:59.193Z,30.50
2023-02-02T17:43:02.941Z,30.60
2023-02-02T17:48:07.834Z,30.60
2023-02-02T17:53:12.706Z,30.70
2023-02-02T17:58:17.428Z,30.70
2023-02-02T18:03:25.643Z,31.00
2023-02-02T18:08:28.624Z,31.00
2023-02-02T18:13:31.532Z,30.90
2023-02-02T18:18:35.883Z,30.90
2023-02-02T18:23:39.186Z,30.70
2023-02-02T18:28:42.029Z,30.80
2023-02-02T18:33:47.339Z,30.80
2023-02-02T18:38:51.581Z,30.70
2023-02-02T18:43:55.629Z,30.70
2023-02-02T18:48:59.808Z,30.70
2023-02-02T18:54:02.828Z,30.70
2023-02-02T18:59:06.804Z,30.70
2023-02-02T19:04:11.138Z,30.80
2023-02-02T19:09:17.140Z,31.20
2023-02-02T19:14:24.556Z,31.20
2023-02-02T19:19:30.483Z,31.90
2023-02-02T19:24:38.523Z,31.20
2023-02-02T19:29:41.404Z,31.00
2023-02-02T19:34:45.786Z,31.00
2023-02-02T19:39:48.725Z,30.70
2023-02-02T19:44:51.826Z,30.70
2023-02-02T19:49:56.070Z,30.10
2023-02-02T19:54:58.988Z,30.00
2023-02-02T20:00:12.170Z,30.00
2023-02-02T20:05:24.232Z,30.00
2023-02-02T20:10:29.125Z,30.00
2023-02-02T20:15:35.572Z,30.00
2023-02-02T20:20:43.038Z,29.90
2023-02-02T20:25:45.914Z,29.80
2023-02-02T20:30:48.953Z,29.60
2023-02-02T20:35:53.330Z,29.40
2023-02-02T20:40:56.850Z,29.30
2023-02-02T20:45:59.857Z,29.30
2023-02-02T20:51:04.496Z,29.20
2023-02-02T20:56:07.681Z,29.10
2023-02-02T21:01:10.514Z,29.20
2023-02-02T21:06:14.774Z,29.10
2023-02-02T21:11:17.650Z,29.00
2023-02-02T21:16:20.535Z,29.00
2023-02-02T21:21:25.011Z,28.90
2023-02-02T21:26:30.563Z,29.00
2023-02-02T21:31:35.164Z,29.00
2023-02-02T21:36:43.513Z,28.90
2023-02-02T21:41:46.746Z,29.00
2023-02-02T21:46:52.561Z,29.10
2023-02-02T21:52:00.122Z,29.10
2023-02-02T21:57:06.177Z,29.10
2023-02-02T22:02:35.178Z,29.20
2023-02-02T22:07:40.481Z,29.10
2023-02-02T22:12:43.404Z,29.20
2023-02-02T22:17:46.766Z,29.30
2023-02-02T22:22:52.258Z,29.40
2023-02-02T22:27:57.503Z,29.50
2023-02-02T22:33:00.615Z,29.50
2023-02-02T22:38:05.477Z,29.40
2023-02-02T22:43:08.666Z,29.50
2023-02-02T22:48:12.048Z,29.50
2023-02-02T22:53:16.263Z,29.60
2023-02-02T22:58:19.178Z,29.50
2023-02-02T23:03:22.337Z,29.60
2023-02-02T23:08:26.579Z,29.50
2023-02-02T23:13:29.391Z,29.50
2023-02-02T23:18:32.715Z,29.60
2023-02-02T23:23:36.955Z,29.60
2023-02-02T23:28:39.843Z,29.60
2023-02-02T23:33:42.898Z,29.60
2023-02-02T23:38:48.387Z,29.60
2023-02-02T23:43:51.669Z,29.70
2023-02-02T23:48:54.971Z,29.70
2023-02-02T23:54:00.362Z,29.70
2023-02-02T23:59:03.222Z,29.70
